Time;durP1;ratioP1;P1;durP2;ratioP2;P2;SDS_P1;SDS_P2;PMS_P1;PMS_P2;Temp;Humidity;BMP_temperature;BMP_pressure;BME280_temperature;BME280_humidity;BME280_pressure;Samples;Min_cycle;Max_cycle;Signal;HPM_P1;HPM_P2
2021/07/28 00:01:55;;;;;;;11.93;8.10;;;;;;;21.14;72.74;98925.88;5001249;28;20234;-87
2021/07/28 00:04:22;;;;;;;9.23;7.18;;;;;;;21.16;72.89;98937.28;5017015;28;20644;-87
2021/07/28 00:06:49;;;;;;;9.33;7.60;;;;;;;21.05;73.61;98936.66;5017596;28;20241;-88
2021/07/28 00:09:15;;;;;;;9.67;7.70;;;;;;;20.96;73.76;98929.50;5017055;28;20323;-87
2021/07/28 00:11:43;;;;;;;10.40;8.50;;;;;;;21.00;74.03;98942.22;4985085;28;20316;-88
2021/07/28 00:14:10;;;;;;;11.10;8.23;;;;;;;20.90;74.13;98917.91;5000572;28;20280;-87
2021/07/28 00:16:37;;;;;;;11.00;8.53;;;;;;;20.89;74.27;98929.94;5000946;28;20226;-88
2021/07/28 00:24:22;;;;;;;11.73;8.85;;;;;;;20.87;74.65;98931.34;5002811;28;20242;-88
2021/07/28 00:26:48;;;;;;;11.67;8.30;;;;;;;20.77;74.63;98916.00;5000833;28;20355;-87
2021/07/28 00:29:15;;;;;;;11.77;8.33;;;;;;;20.70;74.86;98915.63;4984621;28;20572;-88
2021/07/28 00:31:42;;;;;;;9.97;8.13;;;;;;;20.73;75.00;98917.72;5016836;28;20264;-88
2021/07/28 00:34:09;;;;;;;9.87;8.00;;;;;;;20.63;75.43;98910.56;4999996;28;20698;-88
2021/07/28 00:36:35;;;;;;;10.83;8.30;;;;;;;20.62;75.40;98902.72;5000445;28;20262;-88
2021/07/28 00:39:02;;;;;;;10.20;8.93;;;;;;;20.55;75.84;98903.13;5000759;28;20244;-88
2021/07/28 00:41:29;;;;;;;11.73;8.80;;;;;;;20.52;76.30;98901.00;5000590;28;20641;-89
2021/07/28 00:43:56;;;;;;;11.10;8.80;;;;;;;20.47;76.38;98895.66;5017129;28;20241;-89
2021/07/28 00:46:22;;;;;;;10.83;8.60;;;;;;;20.47;76.33;98911.19;5000399;28;20586;-88
2021/07/28 00:48:49;;;;;;;10.13;8.73;;;;;;;20.46;76.28;98920.44;5016580;28;20224;-89
2021/07/28 00:51:16;;;;;;;11.93;7.87;;;;;;;20.43;75.87;98918.34;5000448;28;20240;-88
2021/07/28 00:53:43;;;;;;;10.07;8.57;;;;;;;20.26;75.61;98913.44;4984461;28;20238;-88
2021/07/28 00:56:10;;;;;;;9.47;8.47;;;;;;;20.21;76.12;98917.06;4983701;28;20326;-88
2021/07/28 00:58:37;;;;;;;10.40;8.77;;;;;;;20.14;76.27;98913.13;5000358;28;20257;-89
2021/07/28 01:01:04;;;;;;;9.80;8.20;;;;;;;20.02;76.80;98899.19;5000270;28;20241;-89
2021/07/28 01:03:31;;;;;;;8.90;8.10;;;;;;;19.99;77.26;98902.50;4999883;28;20254;-89
2021/07/28 01:05:58;;;;;;;11.53;9.13;;;;;;;20.09;77.25;98902.34;4984106;28;20253;-89
2021/07/28 01:08:25;;;;;;;9.53;8.37;;;;;;;20.06;77.39;98906.44;5000043;28;20680;-88
2021/07/28 01:10:56;;;;;;;10.00;9.03;;;;;;;20.05;78.01;98910.28;4982816;28;20269;-89
2021/07/28 01:13:31;;;;;;;11.80;8.87;;;;;;;19.94;77.98;98897.16;5016072;28;20226;-88
2021/07/28 01:16:12;;;;;;;9.10;8.30;;;;;;;20.00;78.23;98918.53;4984697;28;20233;-88
2021/07/28 01:18:40;;;;;;;11.20;8.77;;;;;;;19.99;78.55;98925.06;4980018;28;20232;-88
2021/07/28 01:21:08;;;;;;;9.40;8.50;;;;;;;19.97;78.74;98932.69;5005082;28;20253;-88
2021/07/28 01:23:36;;;;;;;12.13;8.73;;;;;;;19.91;78.62;98920.31;4999580;28;20576;-89
2021/07/28 01:26:05;;;;;;;10.23;9.07;;;;;;;19.90;78.79;98926.03;5015476;28;20234;-87
2021/07/28 01:28:33;;;;;;;12.87;9.40;;;;;;;19.91;78.65;98931.19;4999472;28;20320;-89
2021/07/28 01:31:10;;;;;;;13.23;8.90;;;;;;;19.93;78.83;98931.69;4995790;28;20230;-89
2021/07/28 01:33:41;;;;;;;10.20;9.20;;;;;;;19.91;78.80;98936.63;4993220;28;20273;-89
2021/07/28 01:36:35;;;;;;;10.73;8.70;;;;;;;19.88;78.92;98933.69;4999058;28;20237;-90
2021/07/28 01:39:04;;;;;;;10.57;9.03;;;;;;;19.85;78.88;98929.66;4998405;28;20287;-90
2021/07/28 01:41:32;;;;;;;11.17;9.57;;;;;;;19.77;79.20;98919.47;5000113;28;20240;-89
2021/07/28 01:43:59;;;;;;;13.03;9.50;;;;;;;19.79;79.02;98938.97;4982774;28;20237;-89
2021/07/28 01:46:26;;;;;;;11.43;8.90;;;;;;;19.77;79.10;98942.03;4999054;28;20233;-89
2021/07/28 01:48:53;;;;;;;12.27;9.20;;;;;;;19.75;79.01;98949.66;4983484;28;20228;-88
2021/07/28 01:51:19;;;;;;;11.57;9.13;;;;;;;19.70;79.27;98935.31;4999020;28;20289;-89
2021/07/28 01:53:46;;;;;;;10.50;9.30;;;;;;;19.62;79.38;98939.53;5015579;28;20280;-88
2021/07/28 01:56:14;;;;;;;11.53;8.80;;;;;;;19.67;79.54;98938.66;4998208;28;20282;-88
2021/07/28 01:58:43;;;;;;;11.07;9.23;;;;;;;19.59;79.78;98928.44;4999528;28;20225;-89
2021/07/28 02:01:10;;;;;;;13.73;9.43;;;;;;;19.62;79.70;98938.72;4983130;28;20241;-88
2021/07/28 02:03:37;;;;;;;11.17;9.40;;;;;;;19.64;79.71;98937.31;4982894;28;20284;-88
2021/07/28 02:06:07;;;;;;;11.73;9.40;;;;;;;19.66;79.77;98950.59;4998446;28;20259;-90
2021/07/28 02:08:33;;;;;;;10.43;8.63;;;;;;;19.57;79.65;98933.38;4982850;28;20644;-88
2021/07/28 02:11:00;;;;;;;16.80;9.43;;;;;;;19.67;79.55;98942.16;5015151;28;20256;-89
2021/07/28 02:13:27;;;;;;;10.73;9.40;;;;;;;19.60;79.36;98913.75;5015118;28;20589;-88
2021/07/28 02:15:54;;;;;;;12.27;9.23;;;;;;;19.66;79.16;98931.59;4982902;28;20261;-88
2021/07/28 02:18:24;;;;;;;11.13;8.97;;;;;;;19.57;79.37;98917.06;4998606;28;20238;-88
2021/07/28 02:20:51;;;;;;;11.33;9.00;;;;;;;19.52;79.41;98923.38;4998761;28;20274;-89
2021/07/28 02:23:17;;;;;;;10.80;8.70;;;;;;;19.56;79.69;98931.75;4982523;28;20225;-89
2021/07/28 02:25:44;;;;;;;11.07;8.93;;;;;;;19.54;79.72;98933.97;5015189;28;20283;-89
2021/07/28 02:28:11;;;;;;;12.57;9.30;;;;;;;19.51;79.54;98943.50;4998368;28;20236;-89
2021/07/28 02:30:38;;;;;;;10.60;8.77;;;;;;;19.44;79.75;98931.38;5015001;28;20641;-90
2021/07/28 02:33:07;;;;;;;9.50;8.60;;;;;;;19.47;79.53;98947.09;4999042;28;20220;-89
2021/07/28 02:35:33;;;;;;;11.67;8.80;;;;;;;19.45;79.95;98943.88;4998198;28;20312;-89
2021/07/28 02:38:00;;;;;;;11.03;8.57;;;;;;;19.39;79.63;98928.72;4998378;28;20302;-91
2021/07/28 02:40:27;;;;;;;9.30;8.40;;;;;;;19.46;79.82;98946.28;4998232;28;20252;-89
2021/07/28 02:42:54;;;;;;;9.73;8.73;;;;;;;19.37;80.04;98931.72;5014759;28;20241;-89
2021/07/28 02:45:20;;;;;;;9.47;8.20;;;;;;;19.42;80.04;98936.25;4982186;28;20231;-89
2021/07/28 02:47:47;;;;;;;9.70;8.47;;;;;;;19.33;79.94;98928.78;4998365;28;20288;-90
2021/07/28 02:50:14;;;;;;;10.80;8.70;;;;;;;19.30;79.66;98921.22;4998095;28;20351;-87
2021/07/28 02:52:41;;;;;;;10.90;9.03;;;;;;;19.44;79.72;98940.34;4982463;28;20601;-89
2021/07/28 02:55:08;;;;;;;9.50;8.00;;;;;;;19.52;79.58;98945.13;4998338;28;20691;-89
2021/07/28 02:57:36;;;;;;;11.03;8.20;;;;;;;19.53;79.36;98940.50;5014438;28;20236;-89
2021/07/28 03:00:04;;;;;;;11.97;8.20;;;;;;;19.46;79.31;98929.97;4998210;28;20260;-89
2021/07/28 03:02:31;;;;;;;10.23;8.20;;;;;;;19.50;79.30;98935.66;4998549;28;20284;-89
2021/07/28 03:04:58;;;;;;;11.37;8.90;;;;;;;19.49;79.57;98931.31;4998064;28;20243;-88
2021/07/28 03:07:25;;;;;;;9.50;8.50;;;;;;;19.52;79.57;98925.28;5000857;28;20261;-89
2021/07/28 03:09:52;;;;;;;12.60;8.80;;;;;;;19.52;79.61;98930.72;4986142;28;20233;-89
2021/07/28 03:12:19;;;;;;;12.17;8.77;;;;;;;19.50;79.61;98931.03;5001928;28;20238;-90
2021/07/28 03:14:46;;;;;;;10.73;8.90;;;;;;;19.54;79.66;98944.81;5002621;28;20245;-88
2021/07/28 03:17:13;;;;;;;11.77;8.03;;;;;;;19.63;79.53;98960.16;4986119;28;20223;-90
2021/07/28 03:19:39;;;;;;;12.30;8.47;;;;;;;19.62;79.18;98950.41;5002333;28;20291;-90
2021/07/28 03:22:06;;;;;;;11.07;8.60;;;;;;;19.68;78.98;98954.66;5017560;28;20237;-89
2021/07/28 03:24:33;;;;;;;12.17;8.63;;;;;;;19.69;78.78;98950.03;5018340;28;20511;-88
2021/07/28 03:27:00;;;;;;;10.70;8.63;;;;;;;19.80;78.47;98967.78;4985801;28;20224;-88
2021/07/28 03:29:27;;;;;;;12.20;8.00;;;;;;;19.89;78.46;98968.72;5002378;28;20304;-89
2021/07/28 03:31:53;;;;;;;11.30;8.23;;;;;;;19.96;78.63;98987.41;5001615;28;20237;-89
2021/07/28 03:34:20;;;;;;;10.83;8.20;;;;;;;20.01;77.86;98985.41;5001519;28;20250;-88
2021/07/28 03:36:47;;;;;;;10.37;7.57;;;;;;;20.07;77.34;98984.19;5001764;28;20283;-87
2021/07/28 03:39:14;;;;;;;9.10;8.20;;;;;;;20.23;76.95;98992.91;5017870;28;20313;-89
2021/07/28 03:41:41;;;;;;;10.43;7.90;;;;;;;20.22;76.46;98972.25;4985582;28;20255;-88
2021/07/28 03:44:08;;;;;;;13.50;7.97;;;;;;;20.29;75.19;98963.72;5001057;28;20292;-88
2021/07/28 03:46:35;;;;;;;10.27;7.90;;;;;;;20.48;74.75;98978.88;4985785;28;20304;-88
2021/07/28 03:49:02;;;;;;;11.97;7.73;;;;;;;20.62;74.56;98977.00;5001522;28;20328;-87
2021/07/28 03:51:29;;;;;;;8.97;7.63;;;;;;;20.73;74.55;98983.06;5001939;28;20307;-87
2021/07/28 03:53:55;;;;;;;9.73;8.00;;;;;;;20.80;74.23;98977.22;5002266;28;20231;-88
2021/07/28 03:56:23;;;;;;;10.80;8.37;;;;;;;20.92;73.89;98972.06;5017903;28;20233;-87
2021/07/28 03:58:53;;;;;;;9.07;7.40;;;;;;;21.09;73.31;98988.59;4985737;28;20662;-87
2021/07/28 04:01:20;;;;;;;9.13;7.47;;;;;;;21.27;72.93;98987.72;4998290;28;20592;-88
2021/07/28 04:03:49;;;;;;;10.67;7.47;;;;;;;21.45;72.08;98994.97;4996488;28;20248;-87
2021/07/28 04:06:16;;;;;;;9.23;7.13;;;;;;;22.18;69.36;99012.09;4984781;28;20285;-84
2021/07/28 04:08:43;;;;;;;10.53;7.50;;;;;;;23.12;65.81;99031.75;4985458;28;20227;-87
2021/07/28 04:11:10;;;;;;;11.77;7.43;;;;;;;23.16;64.24;98978.09;5001520;28;20242;-84
2021/07/28 04:13:37;;;;;;;8.97;7.10;;;;;;;22.95;64.63;98984.47;5017952;28;20238;-87
2021/07/28 04:16:04;;;;;;;8.90;7.50;;;;;;;22.77;65.37;98991.75;5001222;28;20230;-88
2021/07/28 04:18:32;;;;;;;9.47;7.20;;;;;;;22.62;65.43;98987.50;4984629;28;20236;-85
2021/07/28 04:20:59;;;;;;;12.07;7.70;;;;;;;22.63;65.90;99010.16;5001272;28;20229;-88
2021/07/28 04:23:26;;;;;;;30.13;23.03;;;;;;;22.60;65.89;99002.56;5001315;28;20223;-87
2021/07/28 04:25:53;;;;;;;15.55;9.43;;;;;;;22.46;65.97;98999.13;5001292;28;20321;-89
2021/07/28 04:28:19;;;;;;;12.17;8.67;;;;;;;22.44;66.22;98999.47;4999690;28;20291;-82
2021/07/28 04:30:46;;;;;;;10.70;7.83;;;;;;;22.49;66.95;99004.75;5000483;28;20254;-82
2021/07/28 04:33:13;;;;;;;10.97;8.47;;;;;;;22.48;66.80;99010.53;5000073;28;20234;-81
2021/07/28 04:35:40;;;;;;;14.10;7.95;;;;;;;22.40;67.03;99001.19;4999736;28;20310;-82
2021/07/28 04:38:06;;;;;;;12.10;7.53;;;;;;;22.35;66.59;98998.56;4999883;28;20234;-82
2021/07/28 04:40:33;;;;;;;8.90;6.90;;;;;;;22.48;66.87;99022.28;5017535;28;20250;-82
2021/07/28 04:43:00;;;;;;;10.40;8.10;;;;;;;22.57;67.20;99008.66;5015920;28;20265;-82
2021/07/28 04:45:26;;;;;;;11.18;8.10;;;;;;;22.62;67.24;99022.19;4991728;28;20536;-82
2021/07/28 04:47:53;;;;;;;10.20;7.87;;;;;;;22.68;66.79;99012.72;4998175;28;20234;-82
2021/07/28 04:50:20;;;;;;;10.20;8.52;;;;;;;22.66;66.76;99031.38;4997929;28;20412;-83
2021/07/28 04:52:47;;;;;;;10.40;8.02;;;;;;;22.90;65.99;99031.03;4981883;28;20242;-83
2021/07/28 04:55:14;;;;;;;11.35;7.78;;;;;;;23.13;65.60;99021.66;4997796;28;20280;-82
2021/07/28 04:57:41;;;;;;;15.23;9.00;;;;;;;23.16;65.74;99048.31;4984449;28;20239;-84
2021/07/28 05:00:08;;;;;;;11.98;9.30;;;;;;;23.40;64.69;99035.06;4981778;28;20591;-84
2021/07/28 05:02:35;;;;;;;12.93;8.93;;;;;;;23.43;64.13;99028.13;5015867;28;20236;-84
2021/07/28 05:05:04;;;;;;;11.73;8.77;;;;;;;23.70;63.26;99027.91;4999031;28;20595;-84
2021/07/28 05:07:30;;;;;;;12.52;8.50;;;;;;;23.74;63.46;99030.81;4998975;28;20268;-84
2021/07/28 05:09:58;;;;;;;11.07;8.35;;;;;;;24.15;62.76;99022.94;5015577;28;20230;-84
2021/07/28 05:12:25;;;;;;;14.07;8.23;;;;;;;24.46;61.47;99023.56;4999212;28;20227;-84
2021/07/28 05:14:52;;;;;;;11.95;8.23;;;;;;;24.76;60.26;99013.50;4998173;28;20237;-84
2021/07/28 05:17:20;;;;;;;10.15;7.80;;;;;;;25.05;59.11;99012.78;4999322;28;20241;-84
2021/07/28 05:19:47;;;;;;;8.50;7.53;;;;;;;25.30;58.47;99030.19;4999094;28;20236;-84
2021/07/28 05:22:14;;;;;;;12.00;7.57;;;;;;;25.37;57.10;99019.53;5014948;28;20247;-84
2021/07/28 05:24:40;;;;;;;8.75;7.35;;;;;;;25.38;56.99;99018.41;4999100;28;20235;-84
2021/07/28 05:27:07;;;;;;;11.63;7.63;;;;;;;25.49;56.76;99024.28;4998880;28;20257;-84
2021/07/28 05:29:34;;;;;;;9.63;7.22;;;;;;;25.67;56.55;99021.13;5015065;28;20244;-83
2021/07/28 05:32:01;;;;;;;12.77;7.78;;;;;;;25.62;56.51;99032.28;5014591;28;20231;-84
2021/07/28 05:34:27;;;;;;;9.25;7.65;;;;;;;25.48;56.89;99023.47;4995158;28;20234;-85
2021/07/28 05:36:57;;;;;;;10.75;7.35;;;;;;;25.42;56.74;99016.59;4979531;28;20221;-84
2021/07/28 05:39:25;;;;;;;8.85;7.13;;;;;;;25.58;55.06;99025.88;5002453;28;20310;-85
2021/07/28 05:41:51;;;;;;;9.27;6.90;;;;;;;25.85;54.55;99022.59;5030434;28;20316;-84
2021/07/28 05:44:18;;;;;;;10.98;7.05;;;;;;;25.91;54.27;99027.88;5030252;28;20237;-85
2021/07/28 05:46:45;;;;;;;10.05;6.90;;;;;;;26.00;54.13;99036.84;4998940;28;20228;-85
2021/07/28 05:49:12;;;;;;;10.73;7.15;;;;;;;26.11;53.77;99035.31;4998548;28;20312;-84
2021/07/28 05:51:39;;;;;;;10.75;7.25;;;;;;;26.18;53.79;99032.81;5014867;28;20244;-84
2021/07/28 05:54:05;;;;;;;10.82;7.10;;;;;;;26.09;54.27;99029.34;5014329;28;20238;-85
2021/07/28 05:56:32;;;;;;;12.68;7.63;;;;;;;25.98;54.37;99033.66;4998224;28;20284;-85
2021/07/28 05:58:59;;;;;;;9.80;6.57;;;;;;;26.22;54.52;99051.06;4998505;28;20235;-85
2021/07/28 06:01:26;;;;;;;10.10;7.38;;;;;;;26.39;54.03;99047.38;4998123;28;20318;-84
2021/07/28 06:03:53;;;;;;;12.13;7.00;;;;;;;26.51;53.96;99047.41;5030999;28;20576;-84
2021/07/28 06:06:20;;;;;;;9.88;7.10;;;;;;;26.68;53.46;99043.69;5014763;28;20246;-85
2021/07/28 06:08:47;;;;;;;8.98;7.07;;;;;;;26.43;53.80;99045.56;5046909;28;20236;-84
2021/07/28 06:11:14;;;;;;;10.15;6.90;;;;;;;26.44;55.41;99043.59;4997996;28;20307;-85
2021/07/28 06:13:41;;;;;;;14.63;7.60;;;;;;;26.49;54.59;99035.97;4998362;28;20320;-85
2021/07/28 06:16:08;;;;;;;11.82;6.82;;;;;;;26.53;53.71;99045.13;5014081;28;20237;-85
2021/07/28 06:18:35;;;;;;;13.27;7.05;;;;;;;26.74;53.20;99050.56;4997849;28;20225;-85
2021/07/28 06:21:02;;;;;;;10.73;7.15;;;;;;;26.94;53.31;99068.97;4998288;28;20313;-84
2021/07/28 06:23:29;;;;;;;8.38;6.78;;;;;;;27.05;53.34;99061.88;5018811;28;20309;-85
2021/07/28 06:25:55;;;;;;;10.65;7.60;;;;;;;27.31;52.46;99067.03;4978748;28;20530;-85
2021/07/28 06:28:22;;;;;;;10.30;6.85;;;;;;;27.44;52.10;99065.09;5010414;28;20247;-85
2021/07/28 06:30:51;;;;;;;11.63;6.75;;;;;;;27.55;51.42;99066.28;4994862;28;20231;-85
2021/07/28 06:33:21;;;;;;;11.02;6.90;;;;;;;27.84;50.36;99079.78;4994481;28;20238;-85
2021/07/28 06:35:49;;;;;;;9.30;6.53;;;;;;;28.02;49.88;99075.59;5026981;28;20235;-85
2021/07/28 06:38:16;;;;;;;9.75;6.68;;;;;;;28.26;49.19;99073.94;4994140;28;20237;-85
2021/07/28 06:40:43;;;;;;;9.00;6.30;;;;;;;28.41;49.19;99075.97;4980743;28;20251;-84
2021/07/28 06:43:11;;;;;;;10.25;6.60;;;;;;;28.44;49.65;99076.06;5003728;28;20241;-84
2021/07/28 06:45:38;;;;;;;9.18;6.22;;;;;;;28.53;48.50;99075.91;4997652;28;20285;-84
2021/07/28 06:48:05;;;;;;;10.68;6.38;;;;;;;28.79;47.85;99070.72;4997696;28;20277;-84
2021/07/28 06:50:32;;;;;;;12.20;6.60;;;;;;;29.08;48.38;99074.22;5014146;28;20313;-84
2021/07/28 06:52:59;;;;;;;12.13;6.78;;;;;;;28.76;49.25;99073.41;5014075;28;20230;-85
2021/07/28 06:55:28;;;;;;;9.65;6.30;;;;;;;28.96;47.68;99069.63;5000255;28;20257;-84
2021/07/28 06:57:54;;;;;;;12.38;6.65;;;;;;;29.12;47.26;99048.34;5017929;28;20251;-84
2021/07/28 07:00:21;;;;;;;8.48;6.30;;;;;;;29.43;46.98;99066.88;5014947;28;20630;-85
2021/07/28 07:02:48;;;;;;;10.65;5.97;;;;;;;29.32;48.22;99057.53;4997834;28;20254;-84
2021/07/28 07:05:15;;;;;;;9.80;6.15;;;;;;;29.38;47.80;99055.31;4997908;28;20665;-84
2021/07/28 07:07:42;;;;;;;11.15;6.28;;;;;;;29.40;46.70;99052.97;5027752;28;20280;-84
2021/07/28 07:10:09;;;;;;;8.57;6.15;;;;;;;29.66;46.91;99067.81;5016204;28;20231;-84
2021/07/28 07:12:37;;;;;;;10.10;6.22;;;;;;;29.71;46.76;99047.41;5014022;28;20680;-84
2021/07/28 07:15:06;;;;;;;9.18;5.90;;;;;;;29.39;47.52;99037.59;5014039;28;20247;-84
2021/07/28 07:17:32;;;;;;;8.55;6.05;;;;;;;29.36;46.96;99041.06;5030249;28;20582;-84
2021/07/28 07:19:59;;;;;;;7.97;6.10;;;;;;;29.59;47.07;99040.03;5010280;28;20227;-84
2021/07/28 07:22:26;;;;;;;7.95;5.93;;;;;;;29.64;46.34;99050.00;5013564;28;20572;-85
2021/07/28 07:24:53;;;;;;;12.40;5.90;;;;;;;29.77;46.47;99047.94;5004546;28;20322;-85
2021/07/28 07:27:20;;;;;;;9.43;5.97;;;;;;;29.96;46.87;99054.28;5033567;28;20261;-84
2021/07/28 07:29:48;;;;;;;9.50;6.18;;;;;;;30.08;47.19;99051.41;5033520;28;20253;-84
2021/07/28 07:32:21;;;;;;;8.52;5.40;;;;;;;30.15;45.25;99053.50;5049457;28;20313;-85
2021/07/28 07:34:49;;;;;;;7.32;5.50;;;;;;;30.04;44.13;99045.03;5016112;28;20217;-85
2021/07/28 07:37:17;;;;;;;7.25;5.20;;;;;;;29.87;44.60;99037.09;5039665;28;20222;-85
2021/07/28 07:39:43;;;;;;;8.63;5.18;;;;;;;29.98;43.97;99040.94;5032891;28;20226;-84
2021/07/28 07:42:10;;;;;;;6.70;4.90;;;;;;;30.07;43.82;99037.97;5048689;28;20680;-84
2021/07/28 07:44:37;;;;;;;7.03;5.22;;;;;;;30.04;44.07;99036.75;5049551;28;20320;-84
2021/07/28 07:47:03;;;;;;;7.80;5.22;;;;;;;29.94;44.14;99025.47;5016818;28;20300;-84
2021/07/28 07:49:30;;;;;;;5.47;5.07;;;;;;;30.10;44.22;99046.31;5031613;28;20497;-84
2021/07/28 07:51:57;;;;;;;6.95;5.03;;;;;;;30.22;44.16;99031.56;5012463;28;20266;-85
2021/07/28 07:54:24;;;;;;;8.30;5.63;;;;;;;30.41;43.77;99037.09;5014685;28;20227;-83
2021/07/28 07:56:51;;;;;;;9.68;5.78;;;;;;;30.13;43.64;99033.75;5020174;28;20681;-85
2021/07/28 07:59:18;;;;;;;9.00;5.20;;;;;;;30.33;44.12;99035.31;5016239;28;20666;-85
2021/07/28 08:01:45;;;;;;;8.15;5.40;;;;;;;30.53;44.03;99044.44;5016193;28;20227;-84
2021/07/28 08:04:11;;;;;;;6.53;5.65;;;;;;;30.54;42.82;99026.69;5018914;28;20265;-84
2021/07/28 08:06:38;;;;;;;6.90;5.72;;;;;;;30.68;42.92;99034.44;5014576;28;20227;-84
2021/07/28 08:09:05;;;;;;;8.05;5.95;;;;;;;30.58;43.60;99035.84;5000701;28;20532;-84
2021/07/28 08:11:32;;;;;;;8.10;6.00;;;;;;;30.43;44.17;99031.19;5016686;28;20555;-85
2021/07/28 08:13:58;;;;;;;7.20;5.63;;;;;;;30.24;45.35;99033.94;5000651;28;20279;-84
2021/07/28 08:16:25;;;;;;;9.73;6.05;;;;;;;30.04;46.00;99033.97;5018587;28;20288;-83
2021/07/28 08:18:52;;;;;;;7.93;5.88;;;;;;;29.77;45.43;99025.84;5029248;28;20332;-84
2021/07/28 08:21:19;;;;;;;7.78;5.25;;;;;;;30.15;46.56;99021.16;5024348;28;20634;-84
2021/07/28 08:23:47;;;;;;;9.38;5.68;;;;;;;29.98;44.81;99010.56;4999344;28;20235;-84
2021/07/28 08:26:18;;;;;;;6.45;5.40;;;;;;;30.49;44.34;99015.94;4998485;28;20227;-84
2021/07/28 08:28:45;;;;;;;7.00;5.28;;;;;;;30.51;43.67;99016.38;5016540;28;20265;-83
2021/07/28 08:31:11;;;;;;;6.65;5.35;;;;;;;30.69;43.42;99017.50;5026167;28;20253;-84
2021/07/28 08:33:38;;;;;;;8.82;5.68;;;;;;;30.60;43.42;99009.47;5034585;28;20330;-84
2021/07/28 08:36:05;;;;;;;8.90;5.70;;;;;;;30.72;43.75;99016.75;4983835;28;20523;-84
2021/07/28 08:38:32;;;;;;;6.38;5.20;;;;;;;30.88;42.86;99016.66;5035453;28;20705;-85
2021/07/28 08:41:03;;;;;;;8.55;5.35;;;;;;;31.03;43.07;99019.28;5040552;28;20218;-85
2021/07/28 08:43:35;;;;;;;5.70;5.13;;;;;;;31.22;41.14;99023.16;5018012;28;20309;-84
2021/07/28 08:46:04;;;;;;;5.57;4.97;;;;;;;31.22;40.81;99010.13;5035302;28;20633;-84
2021/07/28 08:48:32;;;;;;;6.80;5.35;;;;;;;31.20;41.72;99019.97;5055648;28;20249;-85
2021/07/28 08:51:00;;;;;;;8.75;5.07;;;;;;;31.34;41.45;99018.22;5036192;28;20552;-84
2021/07/28 08:53:28;;;;;;;7.05;5.05;;;;;;;31.06;41.95;99008.69;5038893;28;20279;-85
2021/07/28 08:55:56;;;;;;;6.63;5.10;;;;;;;31.14;42.68;99004.84;5039009;28;20236;-84
2021/07/28 08:58:24;;;;;;;7.18;4.90;;;;;;;31.37;41.79;99016.66;5035253;28;20264;-85
2021/07/28 09:00:52;;;;;;;8.10;5.00;;;;;;;31.53;41.08;99008.22;5028771;28;20247;-85
2021/07/28 09:03:19;;;;;;;5.70;5.10;;;;;;;31.51;40.48;99014.13;5038827;28;20226;-84
2021/07/28 09:05:48;;;;;;;9.13;5.40;;;;;;;30.93;41.84;99014.38;5038395;28;20245;-84
2021/07/28 09:08:26;;;;;;;6.63;5.57;;;;;;;31.32;40.74;99008.69;5046681;28;20265;-84
2021/07/28 09:10:55;;;;;;;6.20;5.10;;;;;;;31.44;40.37;99005.72;4998499;28;20318;-85
2021/07/28 09:13:41;;;;;;;4.90;4.40;;;;;;;31.37;39.93;99000.88;5015952;28;20242;-85
2021/07/28 09:16:16;;;;;;;9.70;5.03;;;;;;;31.41;40.64;99001.72;4981718;28;20228;-85
2021/07/28 09:18:47;;;;;;;7.18;4.95;;;;;;;31.55;40.92;98997.56;5015621;28;20226;-85
2021/07/28 09:21:34;;;;;;;7.57;4.80;;;;;;;31.53;40.38;98991.59;5018946;28;20612;-84
2021/07/28 09:24:10;;;;;;;7.15;4.53;;;;;;;31.62;40.56;99000.47;5054464;28;20652;-85
2021/07/28 09:26:39;;;;;;;5.43;4.93;;;;;;;31.85;40.31;98999.22;5039118;28;20225;-85
2021/07/28 09:29:07;;;;;;;5.18;4.40;;;;;;;31.98;39.23;98998.97;5038587;28;20264;-85
2021/07/28 09:31:38;;;;;;;5.07;4.68;;;;;;;32.09;38.17;98999.91;5047833;28;20223;-84
2021/07/28 09:34:29;;;;;;;4.70;4.30;;;;;;;31.50;41.78;98995.13;5014643;28;20225;-84
2021/07/28 09:37:04;;;;;;;5.65;4.65;;;;;;;31.18;40.31;98989.91;4992137;28;20701;-84
2021/07/28 09:39:34;;;;;;;5.22;4.50;;;;;;;31.56;39.81;98988.91;5015140;28;20254;-85
2021/07/28 09:42:13;;;;;;;4.80;4.40;;;;;;;31.66;39.29;98990.25;4998678;28;20595;-85
2021/07/28 09:44:44;;;;;;;5.70;4.85;;;;;;;31.64;40.69;98982.28;5003176;28;20268;-85
2021/07/28 09:47:22;;;;;;;5.70;4.35;;;;;;;31.57;40.52;98971.13;5034458;28;20222;-85
2021/07/28 09:49:50;;;;;;;6.05;4.82;;;;;;;31.60;39.50;98988.94;5034880;28;20226;-84
2021/07/28 09:52:22;;;;;;;7.38;5.00;;;;;;;31.67;39.21;98983.53;5015423;28;20226;-85
2021/07/28 09:54:51;;;;;;;8.80;4.90;;;;;;;32.12;39.37;98980.56;5016351;28;20230;-85
2021/07/28 09:57:23;;;;;;;5.38;4.65;;;;;;;32.13;38.74;98971.09;5033808;28;20317;-85
2021/07/28 09:59:52;;;;;;;6.15;4.85;;;;;;;32.42;37.73;98972.19;5018143;28;20340;-85
2021/07/28 10:02:23;;;;;;;5.38;4.35;;;;;;;32.22;38.51;98977.13;5032580;28;20230;-85
2021/07/28 10:04:54;;;;;;;6.25;4.38;;;;;;;31.71;41.00;98976.06;5005394;28;20306;-85
2021/07/28 10:07:23;;;;;;;5.25;4.75;;;;;;;31.86;40.49;98961.22;4998365;28;20230;-85
2021/07/28 10:09:53;;;;;;;4.72;4.22;;;;;;;31.47;40.09;98967.00;5016879;28;20586;-84
2021/07/28 10:12:20;;;;;;;5.93;4.78;;;;;;;31.52;39.96;98965.91;5020748;28;21619;-85
2021/07/28 10:14:47;;;;;;;5.28;4.78;;;;;;;31.66;40.66;98960.56;5026448;28;20317;-84
2021/07/28 10:17:14;;;;;;;5.97;5.38;;;;;;;31.90;38.58;98954.56;5012479;28;20251;-85
2021/07/28 10:19:41;;;;;;;6.13;4.75;;;;;;;32.15;38.24;98943.78;5035509;28;20219;-85
2021/07/28 10:22:28;;;;;;;5.63;4.80;;;;;;;32.53;37.74;98962.00;5012977;28;20640;-85
2021/07/28 10:24:56;;;;;;;5.22;4.72;;;;;;;32.54;37.16;98940.59;5021969;28;20237;-85
2021/07/28 10:27:22;;;;;;;5.40;4.90;;;;;;;32.58;36.46;98927.56;5009110;28;20360;-85
2021/07/28 10:29:50;;;;;;;5.97;4.60;;;;;;;32.92;37.32;98942.94;5024732;28;20304;-84
2021/07/28 10:32:33;;;;;;;5.22;4.55;;;;;;;32.49;38.41;98946.50;5017204;28;20230;-85
2021/07/28 10:35:18;;;;;;;4.97;4.47;;;;;;;32.83;38.77;98947.22;5001490;28;20242;-85
2021/07/28 10:37:45;;;;;;;5.38;4.88;;;;;;;32.96;37.99;98929.91;5034910;28;20288;-84
2021/07/28 10:40:24;;;;;;;5.10;4.60;;;;;;;33.22;36.40;98933.69;5033511;28;20296;-84
2021/07/28 10:42:54;;;;;;;5.43;4.93;;;;;;;33.37;36.83;98927.00;5033444;28;20230;-85
2021/07/28 10:45:24;;;;;;;5.13;4.60;;;;;;;33.57;36.52;98923.56;5022911;28;20238;-84
2021/07/28 10:47:53;;;;;;;5.20;4.75;;;;;;;33.67;35.97;98918.47;5013709;28;20222;-85
2021/07/28 10:50:20;;;;;;;6.53;4.70;;;;;;;33.74;35.12;98921.28;5005513;28;20573;-85
2021/07/28 10:52:48;;;;;;;8.52;4.65;;;;;;;33.78;35.74;98897.91;4993029;28;20289;-85
2021/07/28 10:55:20;;;;;;;5.35;4.85;;;;;;;33.95;35.75;98913.81;4977974;28;20630;-85
2021/07/28 10:57:56;;;;;;;5.18;4.72;;;;;;;34.18;34.99;98913.50;4990547;28;20219;-85
2021/07/28 11:00:38;;;;;;;6.43;4.75;;;;;;;34.26;34.51;98915.09;5018556;28;20250;-84
2021/07/28 11:03:11;;;;;;;5.70;4.97;;;;;;;34.35;33.99;98895.25;4994072;28;20235;-85
2021/07/28 11:05:41;;;;;;;5.40;4.90;;;;;;;34.36;34.83;98911.56;4977833;28;20698;-85
2021/07/28 11:08:08;;;;;;;5.65;4.85;;;;;;;33.93;34.87;98898.72;4993624;28;20231;-84
2021/07/28 11:10:38;;;;;;;7.72;5.28;;;;;;;33.87;34.93;98892.78;4978234;28;20634;-85
2021/07/28 11:13:19;;;;;;;7.60;4.95;;;;;;;33.53;36.16;98896.97;4994892;28;20505;-85
2021/07/28 11:15:59;;;;;;;9.23;5.50;;;;;;;33.68;37.38;98897.84;5007736;28;20310;-85
2021/07/28 11:18:37;;;;;;;5.60;4.95;;;;;;;33.84;35.97;98892.72;5017342;28;20269;-85
2021/07/28 11:21:12;;;;;;;6.13;4.65;;;;;;;34.25;35.87;98898.84;5016571;28;20252;-84
2021/07/28 11:23:41;;;;;;;6.15;4.90;;;;;;;34.31;35.41;98878.56;5016551;28;20276;-84
2021/07/28 11:26:14;;;;;;;6.00;4.88;;;;;;;34.36;35.78;98885.72;5048876;28;20575;-84
2021/07/28 11:28:43;;;;;;;7.80;5.22;;;;;;;33.86;35.24;98873.69;5030268;28;20226;-85
2021/07/28 11:31:10;;;;;;;5.82;4.65;;;;;;;34.20;35.11;98869.44;5010348;28;20736;-84
2021/07/28 11:33:37;;;;;;;6.13;4.97;;;;;;;33.36;36.13;98875.47;5020343;28;20223;-85
2021/07/28 11:36:05;;;;;;;9.35;5.13;;;;;;;33.39;37.99;98869.94;5019662;28;20284;-84
2021/07/28 11:38:39;;;;;;;6.20;5.15;;;;;;;33.96;35.09;98865.41;5005115;28;20651;-85
2021/07/28 11:41:10;;;;;;;5.38;4.88;;;;;;;34.25;33.25;98865.47;5027941;28;20637;-85